sensor_id;sensor_type;location;lat;lon;timestamp;temperature;humidity
56123;DHT22;42426;46.104;19.656;2022-08-06T00:00:46;640.90;1280.00
56123;DHT22;42426;46.104;19.656;2022-08-06T00:03:12;665.60;1305.60
56123;DHT22;42426;46.104;19.656;2022-08-06T00:05:38;665.60;1305.60
56123;DHT22;42426;46.104;19.656;2022-08-06T00:08:04;665.60;1305.60
56123;DHT22;42426;46.104;19.656;2022-08-06T00:10:30;665.60;1305.60
56123;DHT22;42426;46.104;19.656;2022-08-06T00:12:58;640.80;1280.00
56123;DHT22;42426;46.104;19.656;2022-08-06T00:15:25;640.80;1280.00
56123;DHT22;42426;46.104;19.656;2022-08-06T00:17:51;640.80;1280.00
56123;DHT22;42426;46.104;19.656;2022-08-06T00:20:16;640.70;1305.60
56123;DHT22;42426;46.104;19.656;2022-08-06T00:22:42;640.60;1305.60
56123;DHT22;42426;46.104;19.656;2022-08-06T00:25:08;640.70;1305.60
56123;DHT22;42426;46.104;19.656;2022-08-06T00:27:36;640.50;1305.60
56123;DHT22;42426;46.104;19.656;2022-08-06T00:30:04;640.40;1305.60
56123;DHT22;42426;46.104;19.656;2022-08-06T00:32:30;640.40;1305.60
56123;DHT22;42426;46.104;19.656;2022-08-06T00:34:56;640.40;1305.60
56123;DHT22;42426;46.104;19.656;2022-08-06T00:37:21;640.40;1305.60
56123;DHT22;42426;46.104;19.656;2022-08-06T00:39:48;640.30;1305.60
56123;DHT22;42426;46.104;19.656;2022-08-06T00:42:15;640.30;1305.60
56123;DHT22;42426;46.104;19.656;2022-08-06T00:44:40;640.30;1305.60
56123;DHT22;42426;46.104;19.656;2022-08-06T00:47:06;640.20;1305.60
56123;DHT22;42426;46.104;19.656;2022-08-06T00:49:32;640.10;1331.20
56123;DHT22;42426;46.104;19.656;2022-08-06T00:51:58;640.10;1331.20
56123;DHT22;42426;46.104;19.656;2022-08-06T00:54:28;640.10;1331.20
56123;DHT22;42426;46.104;19.656;2022-08-06T00:56:55;640.00;1331.20
56123;DHT22;42426;46.104;19.656;2022-08-06T00:59:21;640.00;1331.20
56123;DHT22;42426;46.104;19.656;2022-08-06T01:01:47;640.00;1331.20
56123;DHT22;42426;46.104;19.656;2022-08-06T01:04:13;640.00;1331.20
56123;DHT22;42426;46.104;19.656;2022-08-06T01:06:39;640.00;1331.20
56123;DHT22;42426;46.104;19.656;2022-08-06T01:09:05;640.00;1331.20
56123;DHT22;42426;46.104;19.656;2022-08-06T01:11:31;640.00;1356.80
56123;DHT22;42426;46.104;19.656;2022-08-06T01:13:56;640.50;1331.20
56123;DHT22;42426;46.104;19.656;2022-08-06T01:16:33;640.40;1305.60
56123;DHT22;42426;46.104;19.656;2022-08-06T01:22:08;640.20;1305.60
56123;DHT22;42426;46.104;19.656;2022-08-06T01:30:15;640.10;1305.60
56123;DHT22;42426;46.104;19.656;2022-08-06T01:33:09;640.10;1305.60
56123;DHT22;42426;46.104;19.656;2022-08-06T01:35:42;640.10;1305.60
56123;DHT22;42426;46.104;19.656;2022-08-06T01:38:44;640.00;1305.60
56123;DHT22;42426;46.104;19.656;2022-08-06T01:41:14;640.00;1331.20
56123;DHT22;42426;46.104;19.656;2022-08-06T01:44:03;615.30;1331.20
56123;DHT22;42426;46.104;19.656;2022-08-06T01:46:30;615.20;1331.20
56123;DHT22;42426;46.104;19.656;2022-08-06T01:48:57;615.20;1331.20
56123;DHT22;42426;46.104;19.656;2022-08-06T01:51:25;615.20;1331.20
56123;DHT22;42426;46.104;19.656;2022-08-06T01:53:52;615.30;1331.20
56123;DHT22;42426;46.104;19.656;2022-08-06T01:56:21;615.20;1305.60
56123;DHT22;42426;46.104;19.656;2022-08-06T01:58:49;615.20;1331.20
56123;DHT22;42426;46.104;19.656;2022-08-06T02:03:51;615.20;1356.80
56123;DHT22;42426;46.104;19.656;2022-08-06T02:06:26;615.00;1356.80
56123;DHT22;42426;46.104;19.656;2022-08-06T02:08:53;614.90;1356.80
56123;DHT22;42426;46.104;19.656;2022-08-06T02:11:21;614.90;1382.40
56123;DHT22;42426;46.104;19.656;2022-08-06T02:13:48;614.90;1382.40
56123;DHT22;42426;46.104;19.656;2022-08-06T02:16:16;614.90;1382.40
56123;DHT22;42426;46.104;19.656;2022-08-06T02:18:45;614.80;1382.40
56123;DHT22;42426;46.104;19.656;2022-08-06T02:21:19;614.80;1382.40
56123;DHT22;42426;46.104;19.656;2022-08-06T02:23:47;614.80;1382.40
56123;DHT22;42426;46.104;19.656;2022-08-06T02:26:14;614.80;1382.40
56123;DHT22;42426;46.104;19.656;2022-08-06T02:28:42;614.70;1356.80
56123;DHT22;42426;46.104;19.656;2022-08-06T02:31:09;614.70;1356.80
56123;DHT22;42426;46.104;19.656;2022-08-06T02:33:35;614.70;1382.40
56123;DHT22;42426;46.104;19.656;2022-08-06T02:36:02;614.70;1382.40
56123;DHT22;42426;46.104;19.656;2022-08-06T02:39:22;614.70;1382.40
56123;DHT22;42426;46.104;19.656;2022-08-06T02:41:44;614.60;1382.40
56123;DHT22;42426;46.104;19.656;2022-08-06T02:44:25;614.60;1382.40
56123;DHT22;42426;46.104;19.656;2022-08-06T02:47:01;614.50;1408.00
56123;DHT22;42426;46.104;19.656;2022-08-06T02:49:28;614.60;1408.00
56123;DHT22;42426;46.104;19.656;2022-08-06T02:52:19;614.50;1408.00
56123;DHT22;42426;46.104;19.656;2022-08-06T02:54:55;614.50;1433.60
56123;DHT22;42426;46.104;19.656;2022-08-06T02:57:30;614.40;1433.60
56123;DHT22;42426;46.104;19.656;2022-08-06T03:00:03;614.50;1433.60
56123;DHT22;42426;46.104;19.656;2022-08-06T03:02:32;614.50;1408.00
56123;DHT22;42426;46.104;19.656;2022-08-06T03:05:00;614.40;1408.00
56123;DHT22;42426;46.104;19.656;2022-08-06T03:07:28;614.40;1433.60
56123;DHT22;42426;46.104;19.656;2022-08-06T03:09:55;589.70;1408.00
56123;DHT22;42426;46.104;19.656;2022-08-06T03:12:23;589.50;1433.60
56123;DHT22;42426;46.104;19.656;2022-08-06T03:14:50;589.60;1433.60
56123;DHT22;42426;46.104;19.656;2022-08-06T03:17:19;589.60;1408.00
56123;DHT22;42426;46.104;19.656;2022-08-06T03:19:47;589.60;1408.00
56123;DHT22;42426;46.104;19.656;2022-08-06T03:22:16;589.60;1408.00
56123;DHT22;42426;46.104;19.656;2022-08-06T03:24:45;589.60;1408.00
56123;DHT22;42426;46.104;19.656;2022-08-06T03:27:12;589.60;1408.00
56123;DHT22;42426;46.104;19.656;2022-08-06T03:29:41;589.70;1382.40
56123;DHT22;42426;46.104;19.656;2022-08-06T03:32:08;589.60;1382.40
56123;DHT22;42426;46.104;19.656;2022-08-06T03:34:34;589.70;1382.40
56123;DHT22;42426;46.104;19.656;2022-08-06T03:37:01;589.60;1356.80
56123;DHT22;42426;46.104;19.656;2022-08-06T03:39:30;589.70;1382.40
56123;DHT22;42426;46.104;19.656;2022-08-06T03:41:56;589.70;1382.40
56123;DHT22;42426;46.104;19.656;2022-08-06T03:44:22;614.40;1356.80
56123;DHT22;42426;46.104;19.656;2022-08-06T03:47:01;614.40;1408.00
56123;DHT22;42426;46.104;19.656;2022-08-06T03:49:55;614.50;1382.40
56123;DHT22;42426;46.104;19.656;2022-08-06T03:52:30;614.40;1356.80
56123;DHT22;42426;46.104;19.656;2022-08-06T03:55:02;589.60;1356.80
56123;DHT22;42426;46.104;19.656;2022-08-06T03:57:34;589.60;1356.80
56123;DHT22;42426;46.104;19.656;2022-08-06T04:00:03;589.60;1356.80
56123;DHT22;42426;46.104;19.656;2022-08-06T04:02:44;589.60;1356.80
56123;DHT22;42426;46.104;19.656;2022-08-06T04:05:21;589.50;1382.40
56123;DHT22;42426;46.104;19.656;2022-08-06T04:07:50;589.40;1382.40
56123;DHT22;42426;46.104;19.656;2022-08-06T04:10:17;589.20;1382.40
56123;DHT22;42426;46.104;19.656;2022-08-06T04:12:44;589.10;1382.40
56123;DHT22;42426;46.104;19.656;2022-08-06T04:15:12;589.10;1408.00
56123;DHT22;42426;46.104;19.656;2022-08-06T04:17:40;589.20;1433.60
56123;DHT22;42426;46.104;19.656;2022-08-06T04:20:10;589.20;1408.00
56123;DHT22;42426;46.104;19.656;2022-08-06T04:22:37;589.30;1408.00
56123;DHT22;42426;46.104;19.656;2022-08-06T04:25:03;589.30;1408.00
56123;DHT22;42426;46.104;19.656;2022-08-06T04:27:31;589.60;1433.60
56123;DHT22;42426;46.104;19.656;2022-08-06T04:29:58;589.60;1510.40
56123;DHT22;42426;46.104;19.656;2022-08-06T04:32:25;614.40;1356.80
56123;DHT22;42426;46.104;19.656;2022-08-06T04:34:55;589.70;1331.20
56123;DHT22;42426;46.104;19.656;2022-08-06T04:37:22;589.60;1331.20
56123;DHT22;42426;46.104;19.656;2022-08-06T04:39:48;589.70;1382.40
56123;DHT22;42426;46.104;19.656;2022-08-06T04:42:14;589.60;1356.80
56123;DHT22;42426;46.104;19.656;2022-08-06T04:44:40;589.70;1356.80
56123;DHT22;42426;46.104;19.656;2022-08-06T04:47:06;589.70;1356.80
56123;DHT22;42426;46.104;19.656;2022-08-06T04:49:33;589.60;1382.40
56123;DHT22;42426;46.104;19.656;2022-08-06T04:51:59;614.50;1356.80
56123;DHT22;42426;46.104;19.656;2022-08-06T04:54:27;614.40;1356.80
56123;DHT22;42426;46.104;19.656;2022-08-06T04:56:53;614.40;1356.80
56123;DHT22;42426;46.104;19.656;2022-08-06T04:59:19;614.50;1382.40
56123;DHT22;42426;46.104;19.656;2022-08-06T05:01:45;614.40;1382.40
56123;DHT22;42426;46.104;19.656;2022-08-06T05:04:11;614.40;1382.40
56123;DHT22;42426;46.104;19.656;2022-08-06T05:06:56;614.40;1382.40
56123;DHT22;42426;46.104;19.656;2022-08-06T05:09:25;589.70;1382.40
56123;DHT22;42426;46.104;19.656;2022-08-06T05:11:56;614.40;1382.40
56123;DHT22;42426;46.104;19.656;2022-08-06T05:14:48;614.40;1382.40
56123;DHT22;42426;46.104;19.656;2022-08-06T05:17:17;614.40;1382.40
56123;DHT22;42426;46.104;19.656;2022-08-06T05:19:50;614.50;1382.40
56123;DHT22;42426;46.104;19.656;2022-08-06T05:22:18;614.60;1382.40
56123;DHT22;42426;46.104;19.656;2022-08-06T05:24:45;614.80;1356.80
56123;DHT22;42426;46.104;19.656;2022-08-06T05:27:13;614.90;1382.40
56123;DHT22;42426;46.104;19.656;2022-08-06T05:29:40;615.10;1356.80
56123;DHT22;42426;46.104;19.656;2022-08-06T05:32:06;615.10;1331.20
56123;DHT22;42426;46.104;19.656;2022-08-06T05:34:34;640.00;1331.20
56123;DHT22;42426;46.104;19.656;2022-08-06T05:36:59;640.10;1305.60
56123;DHT22;42426;46.104;19.656;2022-08-06T05:39:25;640.20;1280.00
56123;DHT22;42426;46.104;19.656;2022-08-06T05:41:51;640.70;1356.80
56123;DHT22;42426;46.104;19.656;2022-08-06T07:05:36;742.40;972.80
56123;DHT22;42426;46.104;19.656;2022-08-06T07:08:04;717.70;844.80
56123;DHT22;42426;46.104;19.656;2022-08-06T07:10:31;717.70;1075.20
56123;DHT22;42426;46.104;19.656;2022-08-06T07:12:59;717.70;1100.80
56123;DHT22;42426;46.104;19.656;2022-08-06T07:15:26;717.70;1075.20
56123;DHT22;42426;46.104;19.656;2022-08-06T07:17:53;717.70;870.40
56123;DHT22;42426;46.104;19.656;2022-08-06T08:24:37;794.00;819.20
56123;DHT22;42426;46.104;19.656;2022-08-06T08:27:05;793.70;793.60
56123;DHT22;42426;46.104;19.656;2022-08-06T08:29:35;793.80;819.20
56123;DHT22;42426;46.104;19.656;2022-08-06T08:34:29;794.50;716.80
56123;DHT22;42426;46.104;19.656;2022-08-06T08:36:54;794.20;716.80
56123;DHT22;42426;46.104;19.656;2022-08-06T08:39:21;794.20;742.40
56123;DHT22;42426;46.104;19.656;2022-08-06T09:26:28;819.80;742.40
56123;DHT22;42426;46.104;19.656;2022-08-06T09:28:53;819.80;742.40
56123;DHT22;42426;46.104;19.656;2022-08-06T09:31:20;819.50;844.80
56123;DHT22;42426;46.104;19.656;2022-08-06T09:33:55;819.70;793.60
56123;DHT22;42426;46.104;19.656;2022-08-06T09:36:24;819.80;793.60
56123;DHT22;42426;46.104;19.656;2022-08-06T10:23:39;845.50;742.40
56123;DHT22;42426;46.104;19.656;2022-08-06T10:26:11;845.40;793.60
56123;DHT22;42426;46.104;19.656;2022-08-06T10:28:40;845.10;768.00
56123;DHT22;42426;46.104;19.656;2022-08-06T10:58:30;845.70;768.00
56123;DHT22;42426;46.104;19.656;2022-08-06T11:19:10;896.00;716.80
56123;DHT22;42426;46.104;19.656;2022-08-06T11:21:41;871.00;716.80
56123;DHT22;42426;46.104;19.656;2022-08-06T11:24:08;870.90;691.20
56123;DHT22;42426;46.104;19.656;2022-08-06T11:26:36;870.70;742.40
56123;DHT22;42426;46.104;19.656;2022-08-06T11:29:03;870.60;768.00
56123;DHT22;42426;46.104;19.656;2022-08-06T11:31:32;845.70;793.60
56123;DHT22;42426;46.104;19.656;2022-08-06T11:34:07;845.40;819.20
56123;DHT22;42426;46.104;19.656;2022-08-06T11:39:13;845.30;870.40
56123;DHT22;42426;46.104;19.656;2022-08-06T11:49:22;845.50;819.20
56123;DHT22;42426;46.104;19.656;2022-08-06T11:51:50;845.50;819.20
56123;DHT22;42426;46.104;19.656;2022-08-06T11:54:22;845.40;819.20
56123;DHT22;42426;46.104;19.656;2022-08-06T12:00:02;845.70;768.00
56123;DHT22;42426;46.104;19.656;2022-08-06T12:05:03;845.40;844.80
56123;DHT22;42426;46.104;19.656;2022-08-06T12:07:31;845.50;793.60
56123;DHT22;42426;46.104;19.656;2022-08-06T12:12:35;845.50;793.60
56123;DHT22;42426;46.104;19.656;2022-08-06T12:15:35;845.50;844.80
56123;DHT22;42426;46.104;19.656;2022-08-06T12:23:01;845.50;819.20
56123;DHT22;42426;46.104;19.656;2022-08-06T12:25:37;845.50;819.20
56123;DHT22;42426;46.104;19.656;2022-08-06T12:28:05;845.40;768.00
56123;DHT22;42426;46.104;19.656;2022-08-06T12:30:51;845.50;819.20
56123;DHT22;42426;46.104;19.656;2022-08-06T12:33:18;870.50;716.80
56123;DHT22;42426;46.104;19.656;2022-08-06T12:35:56;870.60;768.00
56123;DHT22;42426;46.104;19.656;2022-08-06T12:38:24;870.50;768.00
56123;DHT22;42426;46.104;19.656;2022-08-06T12:43:19;870.50;793.60
56123;DHT22;42426;46.104;19.656;2022-08-06T12:45:45;870.70;793.60
56123;DHT22;42426;46.104;19.656;2022-08-06T12:48:12;870.70;768.00
56123;DHT22;42426;46.104;19.656;2022-08-06T12:50:42;870.60;793.60
56123;DHT22;42426;46.104;19.656;2022-08-06T12:53:18;870.50;793.60
56123;DHT22;42426;46.104;19.656;2022-08-06T12:55:54;845.70;819.20
56123;DHT22;42426;46.104;19.656;2022-08-06T12:58:35;845.70;819.20
56123;DHT22;42426;46.104;19.656;2022-08-06T13:01:03;845.70;768.00
56123;DHT22;42426;46.104;19.656;2022-08-06T13:03:32;845.70;768.00
56123;DHT22;42426;46.104;19.656;2022-08-06T13:06:00;845.70;793.60
56123;DHT22;42426;46.104;19.656;2022-08-06T13:08:27;845.60;793.60
56123;DHT22;42426;46.104;19.656;2022-08-06T13:10:55;845.60;793.60
56123;DHT22;42426;46.104;19.656;2022-08-06T13:13:38;845.70;793.60
56123;DHT22;42426;46.104;19.656;2022-08-06T13:16:10;845.70;793.60
56123;DHT22;42426;46.104;19.656;2022-08-06T13:18:37;845.70;793.60
56123;DHT22;42426;46.104;19.656;2022-08-06T13:21:20;845.60;819.20
56123;DHT22;42426;46.104;19.656;2022-08-06T13:23:49;845.60;819.20
56123;DHT22;42426;46.104;19.656;2022-08-06T13:26:16;845.50;819.20
56123;DHT22;42426;46.104;19.656;2022-08-06T13:29:09;845.40;819.20
56123;DHT22;42426;46.104;19.656;2022-08-06T13:31:37;845.40;870.40
56123;DHT22;42426;46.104;19.656;2022-08-06T13:34:05;845.30;844.80
56123;DHT22;42426;46.104;19.656;2022-08-06T13:36:33;845.30;844.80
56123;DHT22;42426;46.104;19.656;2022-08-06T13:39:21;845.30;819.20
56123;DHT22;42426;46.104;19.656;2022-08-06T13:42:09;845.20;819.20
56123;DHT22;42426;46.104;19.656;2022-08-06T13:44:38;845.20;819.20
56123;DHT22;42426;46.104;19.656;2022-08-06T13:47:07;845.30;819.20
56123;DHT22;42426;46.104;19.656;2022-08-06T13:49:33;845.20;844.80
56123;DHT22;42426;46.104;19.656;2022-08-06T13:52:01;845.30;793.60
56123;DHT22;42426;46.104;19.656;2022-08-06T13:54:27;845.40;819.20
56123;DHT22;42426;46.104;19.656;2022-08-06T13:56:55;845.50;844.80
56123;DHT22;42426;46.104;19.656;2022-08-06T13:59:24;845.50;844.80
56123;DHT22;42426;46.104;19.656;2022-08-06T14:01:50;845.50;819.20
56123;DHT22;42426;46.104;19.656;2022-08-06T14:04:18;845.50;819.20
56123;DHT22;42426;46.104;19.656;2022-08-06T14:06:48;845.50;819.20
56123;DHT22;42426;46.104;19.656;2022-08-06T14:09:16;845.50;844.80
56123;DHT22;42426;46.104;19.656;2022-08-06T14:11:42;845.50;844.80
56123;DHT22;42426;46.104;19.656;2022-08-06T14:14:08;845.50;844.80
56123;DHT22;42426;46.104;19.656;2022-08-06T14:16:34;845.50;819.20
56123;DHT22;42426;46.104;19.656;2022-08-06T14:19:00;845.40;844.80
56123;DHT22;42426;46.104;19.656;2022-08-06T14:21:26;845.40;844.80
56123;DHT22;42426;46.104;19.656;2022-08-06T14:23:54;845.30;844.80
56123;DHT22;42426;46.104;19.656;2022-08-06T14:26:19;845.20;870.40
56123;DHT22;42426;46.104;19.656;2022-08-06T14:43:41;845.70;844.80
56123;DHT22;42426;46.104;19.656;2022-08-06T14:46:26;845.40;844.80
56123;DHT22;42426;46.104;19.656;2022-08-06T14:48:53;870.40;870.40
56123;DHT22;42426;46.104;19.656;2022-08-06T14:51:19;845.70;844.80
56123;DHT22;42426;46.104;19.656;2022-08-06T14:53:45;870.50;844.80
56123;DHT22;42426;46.104;19.656;2022-08-06T14:56:11;870.60;819.20
56123;DHT22;42426;46.104;19.656;2022-08-06T14:58:37;870.50;844.80
56123;DHT22;42426;46.104;19.656;2022-08-06T15:01:03;870.60;793.60
56123;DHT22;42426;46.104;19.656;2022-08-06T15:03:29;870.60;844.80
56123;DHT22;42426;46.104;19.656;2022-08-06T15:05:55;870.50;819.20
56123;DHT22;42426;46.104;19.656;2022-08-06T15:08:21;845.70;870.40
56123;DHT22;42426;46.104;19.656;2022-08-06T15:10:47;870.50;768.00
56123;DHT22;42426;46.104;19.656;2022-08-06T15:13:12;870.40;819.20
56123;DHT22;42426;46.104;19.656;2022-08-06T15:15:38;870.50;844.80
56123;DHT22;42426;46.104;19.656;2022-08-06T15:18:04;870.50;819.20
56123;DHT22;42426;46.104;19.656;2022-08-06T15:20:30;870.50;793.60
56123;DHT22;42426;46.104;19.656;2022-08-06T15:22:56;870.50;819.20
56123;DHT22;42426;46.104;19.656;2022-08-06T15:25:22;870.60;742.40
56123;DHT22;42426;46.104;19.656;2022-08-06T15:27:48;870.50;768.00
56123;DHT22;42426;46.104;19.656;2022-08-06T15:30:14;870.60;768.00
56123;DHT22;42426;46.104;19.656;2022-08-06T15:32:41;870.60;793.60
56123;DHT22;42426;46.104;19.656;2022-08-06T15:35:07;870.80;793.60
56123;DHT22;42426;46.104;19.656;2022-08-06T15:37:33;870.90;793.60
56123;DHT22;42426;46.104;19.656;2022-08-06T15:39:59;871.20;793.60
56123;DHT22;42426;46.104;19.656;2022-08-06T15:42:25;896.00;793.60
56123;DHT22;42426;46.104;19.656;2022-08-06T15:44:52;896.80;742.40
56123;DHT22;42426;46.104;19.656;2022-08-06T15:47:18;896.70;742.40
56123;DHT22;42426;46.104;19.656;2022-08-06T15:49:44;896.60;742.40
56123;DHT22;42426;46.104;19.656;2022-08-06T15:52:09;896.60;691.20
56123;DHT22;42426;46.104;19.656;2022-08-06T15:54:35;896.60;742.40
56123;DHT22;42426;46.104;19.656;2022-08-06T15:57:01;896.80;742.40
56123;DHT22;42426;46.104;19.656;2022-08-06T16:01:54;922.30;716.80
56123;DHT22;42426;46.104;19.656;2022-08-06T16:04:19;922.10;716.80
56123;DHT22;42426;46.104;19.656;2022-08-06T16:36:04;921.90;716.80
56123;DHT22;42426;46.104;19.656;2022-08-06T16:38:30;896.80;691.20
56123;DHT22;42426;46.104;19.656;2022-08-06T16:40:56;921.60;742.40
56123;DHT22;42426;46.104;19.656;2022-08-06T17:00:33;896.30;844.80
56123;DHT22;42426;46.104;19.656;2022-08-06T17:03:00;896.10;819.20
56123;DHT22;42426;46.104;19.656;2022-08-06T17:05:26;871.20;870.40
56123;DHT22;42426;46.104;19.656;2022-08-06T17:07:52;870.90;896.00
56123;DHT22;42426;46.104;19.656;2022-08-06T17:10:18;870.60;921.60
56123;DHT22;42426;46.104;19.656;2022-08-06T17:12:45;870.40;896.00
56123;DHT22;42426;46.104;19.656;2022-08-06T17:15:12;845.50;947.20
56123;DHT22;42426;46.104;19.656;2022-08-06T17:17:39;845.40;972.80
56123;DHT22;42426;46.104;19.656;2022-08-06T17:20:05;845.10;972.80
56123;DHT22;42426;46.104;19.656;2022-08-06T17:22:31;845.00;998.40
56123;DHT22;42426;46.104;19.656;2022-08-06T17:24:58;844.90;1024.00
56123;DHT22;42426;46.104;19.656;2022-08-06T17:27:24;820.00;998.40
56123;DHT22;42426;46.104;19.656;2022-08-06T17:29:49;819.90;1049.60
56123;DHT22;42426;46.104;19.656;2022-08-06T17:32:18;819.80;1024.00
56123;DHT22;42426;46.104;19.656;2022-08-06T17:34:44;819.70;1049.60
56123;DHT22;42426;46.104;19.656;2022-08-06T17:37:10;819.80;1049.60
56123;DHT22;42426;46.104;19.656;2022-08-06T17:39:37;819.50;1075.20
56123;DHT22;42426;46.104;19.656;2022-08-06T17:42:03;819.30;1100.80
56123;DHT22;42426;46.104;19.656;2022-08-06T17:44:29;819.20;1100.80
56123;DHT22;42426;46.104;19.656;2022-08-06T17:46:55;819.20;1100.80
56123;DHT22;42426;46.104;19.656;2022-08-06T17:49:21;794.50;1100.80
56123;DHT22;42426;46.104;19.656;2022-08-06T17:51:47;793.80;1126.40
56123;DHT22;42426;46.104;19.656;2022-08-06T17:54:13;794.50;1126.40
56123;DHT22;42426;46.104;19.656;2022-08-06T17:56:41;794.20;1126.40
56123;DHT22;42426;46.104;19.656;2022-08-06T17:59:08;794.10;1126.40
56123;DHT22;42426;46.104;19.656;2022-08-06T18:01:34;794.00;1126.40
56123;DHT22;42426;46.104;19.656;2022-08-06T18:04:00;793.90;1152.00
56123;DHT22;42426;46.104;19.656;2022-08-06T18:06:31;793.90;1152.00
56123;DHT22;42426;46.104;19.656;2022-08-06T18:08:56;793.80;1152.00
56123;DHT22;42426;46.104;19.656;2022-08-06T18:11:22;793.70;1152.00
56123;DHT22;42426;46.104;19.656;2022-08-06T18:13:48;793.80;1152.00
56123;DHT22;42426;46.104;19.656;2022-08-06T18:16:16;768.80;1126.40
56123;DHT22;42426;46.104;19.656;2022-08-06T18:18:42;768.50;1152.00
56123;DHT22;42426;46.104;19.656;2022-08-06T18:21:16;768.30;1152.00
56123;DHT22;42426;46.104;19.656;2022-08-06T22:45:35;717.30;1331.20
56123;DHT22;42426;46.104;19.656;2022-08-06T22:48:03;717.10;1331.20
56123;DHT22;42426;46.104;19.656;2022-08-06T22:55:22;717.00;1356.80
56123;DHT22;42426;46.104;19.656;2022-08-06T23:00:16;716.90;1356.80
56123;DHT22;42426;46.104;19.656;2022-08-06T23:02:43;692.00;1331.20
56123;DHT22;42426;46.104;19.656;2022-08-06T23:05:09;691.90;1356.80
56123;DHT22;42426;46.104;19.656;2022-08-06T23:07:35;691.90;1331.20
56123;DHT22;42426;46.104;19.656;2022-08-06T23:10:04;691.70;1331.20
56123;DHT22;42426;46.104;19.656;2022-08-06T23:12:30;691.80;1331.20
56123;DHT22;42426;46.104;19.656;2022-08-06T23:14:56;691.80;1356.80
56123;DHT22;42426;46.104;19.656;2022-08-06T23:17:22;691.80;1331.20
56123;DHT22;42426;46.104;19.656;2022-08-06T23:19:48;691.70;1331.20
56123;DHT22;42426;46.104;19.656;2022-08-06T23:22:13;691.70;1356.80
56123;DHT22;42426;46.104;19.656;2022-08-06T23:24:39;691.60;1356.80
56123;DHT22;42426;46.104;19.656;2022-08-06T23:27:06;691.60;1356.80
